createdAt,value
2023-03-19T00:01:46.524Z,9.34
2023-03-19T00:04:31.549Z,8.73
2023-03-19T00:07:16.493Z,8.70
2023-03-19T00:10:01.377Z,8.66
2023-03-19T00:12:46.348Z,8.76
2023-03-19T00:15:31.311Z,8.73
2023-03-19T00:18:16.245Z,8.83
2023-03-19T00:21:01.208Z,9.17
2023-03-19T00:23:46.019Z,8.70
2023-03-19T00:26:31.008Z,8.61
2023-03-19T00:29:15.764Z,8.30
2023-03-19T00:32:00.777Z,7.78
2023-03-19T00:34:45.599Z,7.49
2023-03-19T00:37:30.504Z,7.47
2023-03-19T00:40:15.453Z,7.68
2023-03-19T00:43:00.379Z,7.52
2023-03-19T00:45:45.388Z,7.82
2023-03-19T00:48:30.209Z,7.69
2023-03-19T00:51:15.324Z,7.50
2023-03-19T00:54:00.132Z,7.79
2023-03-19T00:56:45.125Z,7.58
2023-03-19T00:59:29.866Z,8.14
2023-03-19T01:02:14.797Z,8.37
2023-03-19T01:04:59.548Z,7.95
2023-03-19T01:07:44.363Z,7.32
2023-03-19T01:10:29.158Z,7.98
2023-03-19T01:13:13.970Z,7.80
2023-03-19T01:15:58.832Z,7.85
2023-03-19T01:18:43.697Z,7.90
2023-03-19T01:21:28.570Z,8.30
2023-03-19T01:24:13.365Z,7.65
2023-03-19T01:26:58.452Z,8.05
2023-03-19T01:29:43.260Z,7.88
2023-03-19T01:32:28.246Z,7.89
2023-03-19T01:35:13.346Z,7.56
2023-03-19T01:37:58.175Z,7.58
2023-03-19T01:40:43.088Z,7.66
2023-03-19T01:43:27.880Z,7.33
2023-03-19T01:46:12.875Z,7.50
2023-03-19T01:48:57.811Z,7.55
2023-03-19T01:51:42.739Z,7.98
2023-03-19T01:54:27.507Z,8.18
2023-03-19T01:57:12.309Z,8.37
2023-03-19T01:59:57.138Z,8.26
2023-03-19T02:02:41.959Z,8.51
2023-03-19T02:05:26.991Z,8.31
2023-03-19T02:08:11.964Z,7.86
2023-03-19T02:10:56.780Z,7.99
2023-03-19T02:13:41.657Z,7.69
2023-03-19T02:16:26.607Z,7.48
2023-03-19T02:19:11.349Z,7.80
2023-03-19T02:21:56.208Z,7.60
2023-03-19T02:24:41.124Z,7.67
2023-03-19T02:27:26.032Z,7.41
2023-03-19T02:30:10.919Z,7.88
2023-03-19T02:32:55.880Z,7.76
2023-03-19T02:35:40.780Z,7.77
2023-03-19T02:38:25.513Z,8.03
2023-03-19T02:41:10.343Z,7.04
2023-03-19T02:43:55.282Z,7.22
2023-03-19T02:46:40.198Z,7.33
2023-03-19T02:49:25.102Z,7.25
2023-03-19T02:52:10.022Z,7.21
2023-03-19T02:54:54.934Z,7.41
2023-03-19T02:57:39.654Z,7.33
2023-03-19T03:00:24.621Z,7.30
2023-03-19T03:03:09.386Z,7.46
2023-03-19T03:05:54.389Z,7.68
2023-03-19T03:08:39.152Z,7.74
2023-03-19T03:11:24.011Z,8.05
2023-03-19T03:14:08.904Z,8.24
2023-03-19T03:16:53.730Z,7.97
2023-03-19T03:19:38.546Z,7.73
2023-03-19T03:22:23.404Z,8.18
2023-03-19T03:25:08.413Z,7.82
2023-03-19T03:27:53.198Z,7.00
2023-03-19T03:30:38.098Z,7.35
2023-03-19T03:33:22.930Z,7.35
2023-03-19T03:36:07.787Z,7.07
2023-03-19T03:38:52.693Z,6.85
2023-03-19T03:41:37.594Z,6.87
2023-03-19T03:44:22.521Z,7.09
2023-03-19T03:47:07.451Z,6.79
2023-03-19T03:49:52.384Z,6.74
2023-03-19T03:52:37.153Z,6.79
2023-03-19T03:55:21.993Z,6.91
2023-03-19T03:58:06.954Z,7.09
2023-03-19T04:00:51.970Z,6.96
2023-03-19T04:03:36.811Z,6.55
2023-03-19T04:06:21.726Z,6.74
2023-03-19T04:09:06.580Z,6.89
2023-03-19T04:11:51.683Z,7.29
2023-03-19T04:14:36.857Z,7.19
2023-03-19T04:17:21.615Z,7.09
2023-03-19T04:20:06.553Z,7.17
2023-03-19T04:22:51.351Z,7.14
2023-03-19T04:25:36.325Z,7.32
2023-03-19T04:28:21.161Z,7.01
2023-03-19T04:31:06.660Z,7.57
2023-03-19T04:33:52.058Z,7.09
2023-03-19T04:36:36.855Z,7.03
2023-03-19T04:39:21.696Z,7.09
2023-03-19T04:42:06.559Z,6.93
2023-03-19T04:44:51.419Z,6.96
2023-03-19T04:47:36.290Z,7.34
2023-03-19T04:50:21.252Z,7.10
2023-03-19T04:53:06.051Z,7.05
2023-03-19T04:55:50.935Z,6.77
2023-03-19T04:58:36.025Z,7.10
2023-03-19T05:01:20.949Z,7.05
2023-03-19T05:04:06.021Z,6.87
2023-03-19T05:06:50.946Z,7.22
2023-03-19T05:09:35.868Z,7.55
2023-03-19T05:12:20.690Z,7.48
2023-03-19T05:15:05.611Z,7.31
2023-03-19T05:17:50.444Z,7.04
2023-03-19T05:20:35.703Z,7.11
2023-03-19T05:23:20.733Z,6.92
2023-03-19T05:26:05.556Z,6.79
2023-03-19T05:28:50.638Z,6.87
2023-03-19T05:31:35.539Z,6.72
2023-03-19T05:34:20.213Z,6.74
2023-03-19T05:37:05.138Z,6.61
2023-03-19T05:39:49.971Z,6.59
2023-03-19T05:42:34.832Z,6.65
2023-03-19T05:45:19.763Z,6.35
2023-03-19T05:48:04.794Z,6.14
2023-03-19T05:50:49.663Z,6.09
2023-03-19T05:53:34.624Z,5.99
2023-03-19T05:56:19.420Z,6.38
2023-03-19T05:59:04.450Z,6.21
2023-03-19T06:01:49.283Z,6.21
2023-03-19T06:04:34.182Z,6.36
2023-03-19T06:07:18.953Z,6.26
2023-03-19T06:10:03.848Z,6.55
2023-03-19T06:12:48.834Z,6.42
2023-03-19T06:15:33.788Z,6.56
2023-03-19T06:18:19.245Z,6.43
2023-03-19T06:21:03.932Z,6.08
2023-03-19T06:23:48.912Z,6.09
2023-03-19T06:26:33.765Z,6.24
2023-03-19T06:29:18.626Z,6.21
2023-03-19T06:32:03.590Z,6.60
2023-03-19T06:34:48.417Z,6.25
2023-03-19T06:37:33.454Z,6.05
2023-03-19T06:40:18.212Z,6.58
2023-03-19T06:43:03.104Z,6.27
2023-03-19T06:45:48.090Z,6.49
2023-03-19T06:48:33.013Z,6.33
2023-03-19T06:51:17.815Z,6.14
2023-03-19T06:54:02.702Z,6.16
2023-03-19T06:56:47.615Z,5.80
2023-03-19T06:59:32.523Z,5.94
2023-03-19T07:02:17.348Z,6.14
2023-03-19T07:05:02.316Z,5.74
2023-03-19T07:07:47.323Z,5.85
2023-03-19T07:10:32.273Z,5.54
2023-03-19T07:13:17.594Z,5.61
2023-03-19T07:16:02.495Z,5.76
2023-03-19T07:18:47.504Z,5.53
2023-03-19T07:21:32.425Z,5.69
2023-03-19T07:24:17.305Z,5.41
2023-03-19T07:27:02.257Z,5.63
2023-03-19T07:29:46.984Z,5.66
2023-03-19T07:32:32.036Z,5.50
2023-03-19T07:35:16.840Z,5.41
2023-03-19T07:38:01.651Z,5.40
2023-03-19T07:41:00.970Z,5.16
2023-03-19T07:43:46.508Z,5.37
2023-03-19T07:46:31.904Z,5.43
2023-03-19T07:49:16.809Z,5.47
2023-03-19T07:52:01.838Z,5.35
2023-03-19T07:54:46.692Z,5.58
2023-03-19T07:57:31.638Z,5.45
2023-03-19T08:00:16.447Z,5.71
2023-03-19T08:03:01.458Z,5.76
2023-03-19T08:05:46.280Z,5.54
2023-03-19T08:08:31.247Z,5.66
2023-03-19T08:11:16.061Z,5.64
2023-03-19T08:14:00.879Z,5.75
2023-03-19T08:16:45.771Z,5.57
2023-03-19T08:19:30.963Z,5.46
2023-03-19T08:22:15.897Z,5.42
2023-03-19T08:25:00.676Z,5.61
2023-03-19T08:27:45.677Z,5.79
2023-03-19T08:30:30.462Z,5.41
2023-03-19T08:33:15.477Z,5.61
2023-03-19T08:36:00.350Z,5.71
2023-03-19T08:38:45.207Z,5.78
2023-03-19T08:41:30.398Z,5.68
2023-03-19T08:44:15.276Z,5.81
2023-03-19T08:47:00.165Z,5.93
2023-03-19T08:49:44.996Z,5.62
2023-03-19T08:52:29.940Z,5.73
2023-03-19T08:55:14.827Z,5.49
2023-03-19T08:57:59.626Z,5.56
2023-03-19T09:00:44.560Z,5.43
2023-03-19T09:03:30.058Z,5.36
2023-03-19T09:06:15.028Z,5.38
2023-03-19T09:08:59.868Z,5.36
2023-03-19T09:11:44.914Z,5.58
2023-03-19T09:14:29.861Z,5.27
2023-03-19T09:17:14.599Z,5.40
2023-03-19T09:19:59.558Z,5.57
2023-03-19T09:22:44.523Z,5.46
2023-03-19T09:25:29.474Z,5.50
2023-03-19T09:28:14.347Z,5.47
2023-03-19T09:30:59.268Z,5.41
2023-03-19T09:33:44.074Z,5.84
2023-03-19T09:36:29.113Z,5.42
2023-03-19T09:39:14.191Z,5.71
2023-03-19T09:41:59.701Z,5.63
2023-03-19T09:44:44.570Z,5.63
2023-03-19T09:47:29.621Z,6.03
2023-03-19T09:50:14.646Z,5.66
2023-03-19T09:52:59.450Z,5.89
2023-03-19T09:55:44.324Z,5.64
2023-03-19T09:58:29.215Z,5.96
2023-03-19T10:01:14.135Z,5.89
2023-03-19T10:03:58.915Z,5.68
2023-03-19T10:06:43.835Z,5.98
2023-03-19T10:09:28.661Z,5.90
2023-03-19T10:12:13.634Z,5.99
2023-03-19T10:14:58.576Z,6.28
2023-03-19T10:17:43.379Z,6.03
2023-03-19T10:20:28.257Z,5.97
2023-03-19T10:23:13.207Z,6.29
2023-03-19T10:25:58.268Z,6.28
2023-03-19T10:28:43.091Z,6.17
2023-03-19T10:31:28.110Z,5.60
2023-03-19T10:34:12.979Z,5.62
2023-03-19T10:36:57.825Z,6.07
2023-03-19T10:39:42.764Z,6.05
2023-03-19T10:42:27.544Z,6.20
2023-03-19T10:45:12.513Z,7.06
2023-03-19T10:47:57.394Z,6.86
2023-03-19T10:50:42.383Z,5.92
2023-03-19T10:53:27.196Z,6.29
2023-03-19T10:56:12.203Z,6.02
2023-03-19T10:58:57.020Z,5.57
2023-03-19T11:01:41.996Z,5.95
2023-03-19T11:04:27.008Z,6.17
2023-03-19T11:07:11.706Z,5.78
2023-03-19T11:09:56.658Z,5.59
2023-03-19T11:12:41.485Z,5.48
2023-03-19T11:15:26.384Z,6.03
2023-03-19T11:18:11.206Z,5.79
2023-03-19T11:20:56.021Z,6.09
2023-03-19T11:23:40.793Z,6.39
2023-03-19T11:26:25.745Z,6.36
2023-03-19T11:29:10.642Z,6.17
2023-03-19T11:31:55.529Z,6.20
2023-03-19T11:34:40.254Z,5.99
2023-03-19T11:37:25.128Z,6.79
2023-03-19T11:40:10.024Z,5.75
2023-03-19T11:42:54.794Z,5.99
2023-03-19T11:45:41.995Z,6.23
2023-03-19T11:48:27.083Z,6.15
2023-03-19T11:51:12.059Z,6.09
2023-03-19T11:53:56.936Z,6.28
2023-03-19T11:56:41.811Z,6.06
2023-03-19T11:59:26.894Z,5.86
2023-03-19T12:02:11.766Z,5.96
2023-03-19T12:04:56.795Z,6.34
2023-03-19T12:07:41.524Z,6.04
2023-03-19T12:10:26.315Z,5.98
2023-03-19T12:13:11.209Z,5.90
2023-03-19T12:15:56.095Z,5.77
2023-03-19T12:18:40.922Z,5.91
2023-03-19T12:21:25.874Z,5.81
2023-03-19T12:24:10.633Z,6.04
2023-03-19T12:26:55.514Z,5.63
2023-03-19T12:29:40.374Z,5.65
2023-03-19T12:32:25.179Z,5.53
2023-03-19T12:35:10.049Z,5.82
2023-03-19T12:37:54.953Z,5.67
2023-03-19T12:40:39.709Z,5.11
2023-03-19T12:43:24.590Z,4.91
2023-03-19T12:46:09.467Z,4.73
2023-03-19T12:48:54.330Z,4.34
2023-03-19T12:51:39.184Z,4.66
2023-03-19T12:54:24.268Z,4.32
2023-03-19T12:57:09.136Z,4.35
2023-03-19T12:59:54.030Z,4.19
2023-03-19T13:02:39.166Z,3.94
2023-03-19T13:05:24.534Z,3.53
2023-03-19T13:08:09.416Z,3.21
2023-03-19T13:10:54.060Z,3.42
2023-03-19T13:13:38.983Z,3.73
2023-03-19T13:16:23.755Z,3.39
2023-03-19T13:19:08.578Z,3.39
2023-03-19T13:21:53.406Z,3.33
2023-03-19T13:24:38.451Z,3.29
2023-03-19T13:27:23.317Z,3.08
2023-03-19T13:30:08.251Z,3.30
2023-03-19T13:32:53.419Z,3.30
2023-03-19T13:35:38.215Z,3.47
2023-03-19T13:38:23.326Z,3.61
2023-03-19T13:41:08.223Z,3.53
2023-03-19T13:43:53.085Z,3.58
2023-03-19T13:46:38.061Z,3.37
2023-03-19T13:49:23.544Z,3.83
2023-03-19T13:52:08.325Z,4.03
2023-03-19T13:54:53.253Z,4.53
2023-03-19T13:57:38.226Z,4.65
2023-03-19T14:00:22.850Z,4.88
2023-03-19T14:03:07.779Z,5.23
2023-03-19T14:05:52.573Z,4.75
2023-03-19T14:08:37.332Z,4.78
2023-03-19T14:11:22.210Z,4.85
2023-03-19T14:14:07.048Z,5.12
2023-03-19T14:16:52.034Z,5.17
2023-03-19T14:19:36.835Z,5.09
2023-03-19T14:22:21.972Z,5.04
2023-03-19T14:25:06.862Z,4.99
2023-03-19T14:27:51.737Z,5.42
2023-03-19T14:30:36.896Z,5.36
2023-03-19T14:33:22.600Z,4.69
2023-03-19T14:36:07.525Z,4.46
2023-03-19T14:38:52.280Z,5.25
2023-03-19T14:41:37.209Z,4.76
2023-03-19T14:44:21.994Z,3.98
2023-03-19T14:47:06.958Z,3.71
2023-03-19T14:49:51.902Z,3.63
2023-03-19T14:52:36.841Z,3.79
2023-03-19T14:55:21.547Z,3.62
2023-03-19T14:58:07.536Z,3.49
2023-03-19T15:00:52.792Z,3.93
2023-03-19T15:03:37.619Z,3.87
2023-03-19T15:06:22.652Z,3.77
2023-03-19T15:09:07.296Z,3.63
2023-03-19T15:11:52.313Z,3.11
2023-03-19T15:14:37.102Z,3.63
2023-03-19T15:17:22.085Z,3.25
2023-03-19T15:20:06.965Z,3.28
2023-03-19T15:22:51.866Z,3.45
2023-03-19T15:25:36.992Z,3.30
2023-03-19T15:28:22.053Z,3.69
2023-03-19T15:31:29.257Z,3.38
2023-03-19T15:34:12.343Z,4.49
2023-03-19T15:36:57.660Z,5.04
2023-03-19T15:39:42.713Z,4.53
2023-03-19T15:42:27.591Z,4.89
2023-03-19T15:45:12.607Z,4.44
2023-03-19T15:47:57.530Z,4.66
2023-03-19T15:50:42.298Z,4.61
2023-03-19T15:53:27.092Z,4.90
2023-03-19T15:56:11.889Z,4.85
2023-03-19T15:58:56.829Z,4.88
2023-03-19T16:01:41.781Z,4.97
2023-03-19T16:04:26.675Z,4.28
2023-03-19T16:07:11.548Z,4.20
2023-03-19T16:09:56.460Z,4.98
2023-03-19T16:12:41.290Z,4.92
2023-03-19T16:15:26.295Z,4.25
2023-03-19T16:18:11.008Z,4.02
2023-03-19T16:20:56.002Z,4.19
2023-03-19T16:23:40.998Z,3.42
2023-03-19T16:26:25.777Z,3.87
2023-03-19T16:29:10.580Z,5.44
2023-03-19T16:31:55.348Z,5.88
2023-03-19T16:34:40.272Z,6.29
2023-03-19T16:37:25.082Z,6.27
2023-03-19T16:40:10.051Z,7.10
2023-03-19T16:42:54.924Z,6.73
2023-03-19T16:45:39.913Z,5.88
2023-03-19T16:48:24.745Z,5.61
2023-03-19T16:51:09.657Z,5.74
2023-03-19T16:53:54.509Z,5.78
2023-03-19T16:56:39.508Z,6.00
2023-03-19T16:59:24.513Z,5.71
2023-03-19T17:02:09.405Z,5.77
2023-03-19T17:04:54.373Z,5.71
2023-03-19T17:07:39.131Z,5.78
2023-03-19T17:10:24.096Z,5.73
2023-03-19T17:13:09.001Z,5.50
2023-03-19T17:15:53.932Z,5.04
2023-03-19T17:18:38.806Z,5.01
2023-03-19T17:21:23.775Z,5.89
2023-03-19T17:24:09.233Z,5.78
2023-03-19T17:26:54.767Z,6.36
2023-03-19T17:29:39.697Z,5.85
2023-03-19T17:32:24.442Z,5.95
2023-03-19T17:35:09.479Z,5.81
2023-03-19T17:37:54.456Z,5.84
2023-03-19T17:40:39.190Z,7.41
2023-03-19T17:43:24.114Z,8.89
2023-03-19T17:46:08.905Z,7.96
2023-03-19T17:48:53.718Z,5.10
2023-03-19T17:51:38.528Z,4.08
2023-03-19T17:54:23.536Z,4.56
2023-03-19T17:57:08.436Z,4.07
2023-03-19T17:59:53.310Z,3.44
2023-03-19T18:02:38.281Z,3.45
2023-03-19T18:05:23.204Z,3.43
2023-03-19T18:08:08.281Z,3.33
2023-03-19T18:10:53.166Z,3.04
2023-03-19T18:13:37.990Z,2.80
2023-03-19T18:16:22.821Z,2.90
2023-03-19T18:19:07.696Z,2.71
2023-03-19T18:21:52.633Z,3.01
2023-03-19T18:24:37.597Z,4.08
2023-03-19T18:27:22.562Z,4.37
2023-03-19T18:30:07.506Z,4.67
2023-03-19T18:32:52.563Z,3.40
2023-03-19T18:35:37.512Z,3.05
2023-03-19T18:38:22.704Z,2.69
2023-03-19T18:41:07.557Z,4.06
2023-03-19T18:43:52.531Z,4.01
2023-03-19T18:46:37.408Z,3.42
2023-03-19T18:49:22.371Z,2.86
2023-03-19T18:52:07.300Z,2.52
2023-03-19T18:54:52.244Z,2.37
2023-03-19T18:57:37.277Z,1.93
2023-03-19T19:00:22.026Z,2.01
2023-03-19T19:03:06.973Z,1.64
2023-03-19T19:05:51.736Z,1.86
2023-03-19T19:08:36.509Z,1.93
2023-03-19T19:11:21.472Z,1.58
2023-03-19T19:14:06.320Z,1.55
2023-03-19T19:16:51.289Z,1.65
2023-03-19T19:19:36.377Z,1.33
2023-03-19T19:22:21.507Z,1.09
2023-03-19T19:25:06.444Z,1.19
2023-03-19T19:27:51.344Z,1.23
2023-03-19T19:30:36.277Z,1.10
2023-03-19T19:33:21.357Z,1.13
2023-03-19T19:36:06.419Z,1.28
2023-03-19T19:38:51.442Z,1.60
2023-03-19T19:41:36.394Z,1.02
2023-03-19T19:44:21.248Z,1.06
2023-03-19T19:47:09.740Z,1.15
2023-03-19T19:49:56.784Z,1.05
2023-03-19T19:52:41.642Z,1.33
2023-03-19T19:55:26.469Z,1.25
2023-03-19T19:58:11.372Z,1.46
2023-03-19T20:01:03.178Z,3.62
2023-03-19T20:03:49.577Z,2.97
2023-03-19T20:06:34.523Z,1.95
2023-03-19T20:09:19.552Z,1.67
2023-03-19T20:12:04.484Z,1.58
2023-03-19T20:14:49.402Z,3.13
2023-03-19T20:17:34.375Z,2.09
2023-03-19T20:20:19.353Z,1.39
2023-03-19T20:23:04.345Z,1.06
2023-03-19T20:25:49.159Z,1.12
2023-03-19T20:28:34.126Z,1.19
2023-03-19T20:31:19.111Z,1.05
2023-03-19T20:34:03.879Z,1.97
2023-03-19T20:36:48.855Z,1.61
2023-03-19T20:39:33.711Z,1.55
2023-03-19T20:42:18.947Z,1.66
2023-03-19T20:45:03.597Z,1.40
2023-03-19T20:47:48.569Z,1.62
2023-03-19T20:50:33.660Z,2.03
2023-03-19T20:53:18.494Z,3.58
2023-03-19T20:56:03.503Z,4.22
2023-03-19T20:58:48.457Z,3.83
2023-03-19T21:01:33.383Z,3.64
2023-03-19T21:04:18.247Z,2.67
2023-03-19T21:07:03.379Z,2.32
2023-03-19T21:09:48.121Z,2.64
2023-03-19T21:12:33.129Z,2.73
2023-03-19T21:15:17.895Z,2.18
2023-03-19T21:18:02.860Z,2.11
2023-03-19T21:20:47.977Z,1.87
2023-03-19T21:23:32.660Z,2.21
2023-03-19T21:26:17.640Z,2.41
2023-03-19T21:29:02.517Z,2.40
2023-03-19T21:31:47.857Z,2.24
2023-03-19T21:34:33.224Z,2.28
2023-03-19T21:37:18.085Z,2.85
2023-03-19T21:40:02.942Z,2.90
2023-03-19T21:42:47.877Z,2.83
2023-03-19T21:45:33.562Z,3.06
2023-03-19T21:48:18.562Z,3.02
2023-03-19T21:51:03.455Z,2.91
2023-03-19T21:53:48.305Z,2.64
2023-03-19T21:56:33.209Z,2.70
2023-03-19T21:59:18.155Z,2.87
2023-03-19T22:02:03.132Z,2.85
2023-03-19T22:04:49.119Z,3.03
2023-03-19T22:07:34.215Z,3.00
2023-03-19T22:10:20.184Z,2.70
2023-03-19T22:13:04.998Z,2.77
2023-03-19T22:15:49.884Z,2.39
2023-03-19T22:18:34.580Z,2.61
2023-03-19T22:21:19.486Z,2.27
2023-03-19T22:24:04.359Z,2.44
2023-03-19T22:26:49.280Z,2.52
2023-03-19T22:29:34.296Z,2.24
2023-03-19T22:32:19.057Z,2.33
2023-03-19T22:35:04.907Z,2.67
2023-03-19T22:37:49.696Z,2.85
2023-03-19T22:40:34.614Z,2.77
2023-03-19T22:43:19.457Z,2.34
2023-03-19T22:46:04.583Z,2.43
2023-03-19T22:48:49.838Z,2.56
2023-03-19T22:51:34.590Z,1.93
2023-03-19T22:54:19.502Z,2.45
2023-03-19T22:57:04.313Z,2.62
2023-03-19T22:59:49.242Z,2.52
2023-03-19T23:02:34.128Z,2.71
2023-03-19T23:05:19.198Z,2.66
2023-03-19T23:08:06.011Z,2.70
2023-03-19T23:10:51.379Z,2.43
2023-03-19T23:13:36.308Z,2.76
2023-03-19T23:16:21.381Z,2.84
2023-03-19T23:19:06.692Z,2.80
2023-03-19T23:21:51.450Z,2.59
2023-03-19T23:24:36.422Z,2.61
2023-03-19T23:27:21.317Z,2.54
2023-03-19T23:30:06.158Z,2.51
2023-03-19T23:32:51.091Z,2.39
2023-03-19T23:35:36.069Z,2.84
2023-03-19T23:38:21.317Z,2.87
2023-03-19T23:41:06.247Z,3.05
2023-03-19T23:43:51.258Z,3.22
2023-03-19T23:46:36.166Z,3.04
2023-03-19T23:49:21.051Z,3.14
2023-03-19T23:52:05.920Z,3.04
2023-03-19T23:54:50.877Z,2.22
2023-03-19T23:57:35.870Z,2.42
